createdAt,value
2018-04-17T00:00:11.069Z,4.27
2018-04-17T00:02:39.051Z,4.57
2018-04-17T00:05:10.927Z,4.67
2018-04-17T00:07:41.420Z,4.40
2018-04-17T00:10:08.269Z,4.73
2018-04-17T00:12:36.985Z,5.10
2018-04-17T00:15:03.808Z,4.70
2018-04-17T00:17:34.247Z,4.53
2018-04-17T00:20:00.927Z,4.67
2018-04-17T00:22:27.709Z,4.20
2018-04-17T00:24:54.907Z,4.20
2018-04-17T00:27:36.126Z,4.57
2018-04-17T00:30:08.231Z,4.67
2018-04-17T00:32:45.513Z,4.73
2018-04-17T00:35:22.783Z,4.23
2018-04-17T00:37:51.487Z,4.50
2018-04-17T00:40:18.334Z,4.40
2018-04-17T00:42:45.180Z,4.70
2018-04-17T00:45:12.032Z,4.40
2018-04-17T00:47:38.881Z,5.00
2018-04-17T00:50:05.693Z,4.43
2018-04-17T00:52:32.629Z,4.80
2018-04-17T00:54:59.633Z,4.30
2018-04-17T00:57:27.494Z,4.60
2018-04-17T00:59:54.300Z,4.80
2018-04-17T01:02:21.147Z,4.73
2018-04-17T01:04:48.985Z,5.40
2018-04-17T01:07:22.220Z,5.23
2018-04-17T01:09:49.998Z,4.93
2018-04-17T01:12:22.661Z,4.93
2018-04-17T01:14:49.517Z,4.73
2018-04-17T01:17:16.386Z,4.33
2018-04-17T01:19:43.190Z,4.90
2018-04-17T01:22:12.161Z,4.97
2018-04-17T01:24:39.021Z,5.17
2018-04-17T01:27:08.141Z,4.80
2018-04-17T01:29:47.631Z,5.40
2018-04-17T01:32:20.419Z,5.50
2018-04-17T01:34:48.223Z,5.97
2018-04-17T01:37:17.107Z,5.57
2018-04-17T01:39:43.777Z,5.40
2018-04-17T01:42:14.616Z,5.37
2018-04-17T01:44:41.414Z,4.83
2018-04-17T01:47:10.133Z,6.07
2018-04-17T01:49:49.608Z,5.83
2018-04-17T01:52:20.085Z,5.30
2018-04-17T01:54:53.060Z,5.53
2018-04-17T01:57:19.921Z,5.90
2018-04-17T01:59:46.751Z,5.27
2018-04-17T02:02:13.629Z,5.40
2018-04-17T02:04:50.892Z,5.93
2018-04-17T02:07:22.989Z,5.80
2018-04-17T02:09:55.662Z,5.67
2018-04-17T02:12:22.468Z,5.67
2018-04-17T02:14:49.359Z,6.03
2018-04-17T02:17:16.219Z,5.97
2018-04-17T02:19:43.014Z,5.40
2018-04-17T02:22:11.734Z,5.53
2018-04-17T02:24:40.441Z,4.77
2018-04-17T02:27:08.152Z,4.80
2018-04-17T02:29:40.276Z,5.03
2018-04-17T02:32:08.911Z,5.37
2018-04-17T02:34:35.774Z,5.20
2018-04-17T02:37:04.464Z,4.70
2018-04-17T02:39:35.585Z,5.60
2018-04-17T02:42:03.587Z,5.10
2018-04-17T02:44:30.268Z,5.00
2018-04-17T02:46:57.035Z,5.63
2018-04-17T02:49:24.091Z,5.30
2018-04-17T02:51:50.998Z,5.10
2018-04-17T02:54:19.742Z,5.83
2018-04-17T02:56:46.570Z,4.90
2018-04-17T02:59:13.454Z,6.17
2018-04-17T03:01:40.255Z,5.67
2018-04-17T03:04:08.023Z,5.57
2018-04-17T03:06:37.951Z,5.90
2018-04-17T03:09:12.123Z,5.97
2018-04-17T03:11:39.227Z,5.60
2018-04-17T03:14:11.818Z,5.77
2018-04-17T03:16:42.474Z,6.30
2018-04-17T03:19:10.282Z,6.17
2018-04-17T03:21:38.977Z,5.97
2018-04-17T03:24:06.723Z,6.17
2018-04-17T03:26:39.976Z,6.53
2018-04-17T03:29:06.901Z,6.00
2018-04-17T03:31:33.719Z,6.83
2018-04-17T03:34:04.276Z,6.67
2018-04-17T03:36:31.092Z,6.33
2018-04-17T03:39:05.952Z,6.70
2018-04-17T03:41:37.988Z,6.57
2018-04-17T03:44:04.867Z,7.07
2018-04-17T03:46:39.087Z,7.43
2018-04-17T03:51:53.040Z,8.10
2018-04-17T03:54:19.846Z,7.40
2018-04-17T03:56:51.913Z,8.57
2018-04-17T03:59:36.162Z,8.73
2018-04-17T04:02:15.085Z,8.13
2018-04-17T04:05:00.555Z,9.63
2018-04-17T04:07:37.706Z,9.23
2018-04-17T04:10:04.556Z,11.50
2018-04-17T04:12:31.357Z,10.77
2018-04-17T04:14:58.188Z,10.73
2018-04-17T04:17:34.653Z,11.10
2018-04-17T04:20:07.206Z,11.13
2018-04-17T04:22:40.513Z,11.23
2018-04-17T04:25:13.557Z,10.70
2018-04-17T04:27:52.345Z,10.80
2018-04-17T04:30:25.932Z,10.97
2018-04-17T04:32:55.879Z,10.90
2018-04-17T04:35:26.707Z,11.33
2018-04-17T04:37:53.572Z,11.60
2018-04-17T04:40:25.963Z,10.97
2018-04-17T04:42:55.826Z,10.40
2018-04-17T04:45:22.718Z,11.70
2018-04-17T04:47:52.621Z,11.67
2018-04-17T04:50:20.364Z,11.43
2018-04-17T04:52:50.881Z,11.97
2018-04-17T04:55:28.207Z,11.43
2018-04-17T04:58:05.741Z,11.67
2018-04-17T05:00:34.482Z,10.97
2018-04-17T05:05:37.369Z,11.23
2018-04-17T05:08:04.212Z,11.10
2018-04-17T05:10:31.973Z,10.90
2018-04-17T05:13:09.530Z,10.83
2018-04-17T05:15:39.895Z,11.40
2018-04-17T05:20:54.387Z,11.70
2018-04-17T05:23:27.368Z,11.73
2018-04-17T05:25:56.048Z,12.00
2018-04-17T05:28:40.426Z,10.90
2018-04-17T05:31:07.320Z,12.40
2018-04-17T05:33:35.064Z,13.23
2018-04-17T05:38:50.539Z,12.17
2018-04-17T05:41:22.261Z,11.97
2018-04-17T05:43:49.595Z,11.40
2018-04-17T05:46:17.491Z,11.20
2018-04-17T05:48:45.255Z,12.83
2018-04-17T05:51:18.252Z,11.80
2018-04-17T05:53:46.941Z,11.83
2018-04-17T05:56:15.612Z,12.27
2018-04-17T05:58:42.723Z,12.23
2018-04-17T06:01:14.549Z,11.33
2018-04-17T06:03:42.318Z,12.30
2018-04-17T06:06:10.104Z,11.73
2018-04-17T06:08:37.809Z,11.77
2018-04-17T06:11:05.619Z,11.87
2018-04-17T06:13:34.304Z,11.67
2018-04-17T06:16:05.755Z,11.53
2018-04-17T06:18:33.521Z,12.03
2018-04-17T06:21:01.275Z,11.40
2018-04-17T06:23:29.976Z,11.53
2018-04-17T06:25:57.865Z,12.07
2018-04-17T06:28:32.857Z,11.77
2018-04-17T06:31:00.644Z,11.70
2018-04-17T06:33:30.612Z,10.83
2018-04-17T06:35:59.267Z,9.80
2018-04-17T06:38:39.446Z,10.70
2018-04-17T06:41:08.252Z,11.27
2018-04-17T06:43:36.097Z,10.90
2018-04-17T06:46:03.814Z,10.70
2018-04-17T06:48:34.008Z,10.97
2018-04-17T06:51:02.706Z,11.07
2018-04-17T06:53:29.579Z,11.20
2018-04-17T06:55:56.404Z,12.13
2018-04-17T06:58:23.239Z,11.67
2018-04-17T07:00:51.960Z,11.30
2018-04-17T07:03:26.456Z,11.97
2018-04-17T07:05:55.138Z,12.57
2018-04-17T07:08:32.728Z,11.43
2018-04-17T07:11:12.048Z,10.97
2018-04-17T07:13:40.878Z,12.17
2018-04-17T07:16:07.711Z,11.57
2018-04-17T07:18:38.547Z,12.17
2018-04-17T07:21:05.422Z,13.10
2018-04-17T07:23:34.119Z,11.87
2018-04-17T07:26:00.920Z,12.87
2018-04-17T07:28:29.615Z,12.43
2018-04-17T07:30:59.234Z,12.67
2018-04-17T07:33:26.047Z,11.77
2018-04-17T07:35:58.472Z,11.60
2018-04-17T07:38:29.289Z,11.60
2018-04-17T07:40:56.100Z,12.27
2018-04-17T07:43:24.787Z,11.33
2018-04-17T07:46:09.970Z,12.00
2018-04-17T07:48:51.534Z,12.80
2018-04-17T07:51:22.512Z,12.00
2018-04-17T07:53:54.259Z,11.37
2018-04-17T07:56:22.052Z,12.10
2018-04-17T07:58:54.086Z,12.53
2018-04-17T08:01:28.620Z,11.20
2018-04-17T08:04:05.281Z,12.03
2018-04-17T08:06:35.292Z,10.90
2018-04-17T08:09:18.212Z,11.10
2018-04-17T08:11:47.022Z,11.07
2018-04-17T08:14:17.236Z,11.13
2018-04-17T08:16:43.911Z,11.63
2018-04-17T08:19:10.630Z,9.90
2018-04-17T08:21:37.475Z,9.40
2018-04-17T08:24:10.170Z,10.93
2018-04-17T08:26:37.918Z,10.40
2018-04-17T08:29:10.614Z,9.80
2018-04-17T08:31:37.436Z,8.87
2018-04-17T08:34:16.861Z,8.30
2018-04-17T08:36:58.394Z,8.43
2018-04-17T08:39:29.601Z,8.53
2018-04-17T08:42:08.941Z,8.50
2018-04-17T08:44:36.807Z,8.80
2018-04-17T08:49:48.996Z,5.37
2018-04-17T08:52:21.646Z,4.70
2018-04-17T08:54:49.400Z,4.47
2018-04-17T08:57:16.214Z,4.90
2018-04-17T08:59:43.092Z,4.90
2018-04-17T09:02:09.899Z,4.90
2018-04-17T09:04:36.751Z,4.80
2018-04-17T09:07:03.621Z,4.13
2018-04-17T09:09:34.752Z,4.03
2018-04-17T09:12:06.519Z,4.50
2018-04-17T09:14:33.331Z,5.17
2018-04-17T09:17:01.129Z,4.60
2018-04-17T09:22:16.916Z,4.30
2018-04-17T09:24:47.808Z,4.00
2018-04-17T09:27:26.555Z,4.17
2018-04-17T09:29:56.826Z,4.67
2018-04-17T09:32:23.638Z,4.07
2018-04-17T09:34:52.341Z,4.30
2018-04-17T09:37:20.135Z,4.53
2018-04-17T09:39:47.862Z,4.50
2018-04-17T09:42:19.983Z,3.77
2018-04-17T09:44:47.935Z,4.10
2018-04-17T09:47:15.767Z,4.37
2018-04-17T09:49:42.634Z,4.10
2018-04-17T09:52:09.444Z,4.20
2018-04-17T09:54:38.190Z,3.90
2018-04-17T09:57:16.966Z,4.03
2018-04-17T09:59:45.652Z,4.20
2018-04-17T10:02:19.869Z,4.17
2018-04-17T10:05:00.125Z,4.10
2018-04-17T10:07:37.219Z,4.27
2018-04-17T10:10:05.892Z,3.73
2018-04-17T10:12:33.652Z,4.73
2018-04-17T10:17:47.628Z,3.50
2018-04-17T10:20:26.833Z,3.93
2018-04-17T10:22:57.609Z,3.53
2018-04-17T10:25:30.313Z,3.77
2018-04-17T10:28:02.967Z,4.50
2018-04-17T10:30:45.062Z,3.50
2018-04-17T10:33:15.473Z,3.40
2018-04-17T10:35:45.320Z,3.73
2018-04-17T10:38:12.261Z,3.70
2018-04-17T10:40:52.075Z,3.50
2018-04-17T10:43:32.726Z,3.63
2018-04-17T10:45:59.401Z,3.87
2018-04-17T10:48:30.893Z,3.50
2018-04-17T10:51:00.790Z,3.30
2018-04-17T10:53:28.538Z,3.63
2018-04-17T10:58:46.483Z,4.10
2018-04-17T11:01:19.788Z,3.47
2018-04-17T11:03:48.479Z,3.50
2018-04-17T11:06:16.240Z,3.47
2018-04-17T11:08:44.014Z,3.97
2018-04-17T11:11:11.782Z,3.70
2018-04-17T11:13:49.699Z,4.47
2018-04-17T11:16:19.595Z,3.40
2018-04-17T11:18:55.042Z,3.30
2018-04-17T11:21:34.453Z,3.53
2018-04-17T11:24:01.409Z,3.67
2018-04-17T11:26:28.168Z,3.73
2018-04-17T11:28:55.938Z,3.73
2018-04-17T11:31:23.770Z,4.00
2018-04-17T11:33:57.577Z,4.20
2018-04-17T11:36:32.424Z,4.10
2018-04-17T11:39:11.247Z,4.57
2018-04-17T11:41:41.488Z,4.00
2018-04-17T11:44:26.632Z,5.13
2018-04-17T11:47:08.232Z,4.57
2018-04-17T11:49:35.835Z,5.00
2018-04-17T11:52:02.748Z,4.83
2018-04-17T11:54:30.490Z,4.77
2018-04-17T11:56:58.185Z,5.20
2018-04-17T11:59:32.190Z,5.57
2018-04-17T12:02:04.178Z,5.63
2018-04-17T12:04:49.317Z,6.03
2018-04-17T12:07:27.021Z,5.90
2018-04-17T12:09:55.775Z,6.13
2018-04-17T12:12:22.567Z,6.47
2018-04-17T12:15:01.103Z,6.53
2018-04-17T12:17:30.991Z,6.50
2018-04-17T12:19:57.830Z,6.20
2018-04-17T12:22:24.742Z,6.20
2018-04-17T12:24:52.451Z,6.70
2018-04-17T12:27:22.380Z,8.03
2018-04-17T12:29:56.868Z,6.37
2018-04-17T12:35:20.081Z,6.10
2018-04-17T12:37:54.611Z,6.20
2018-04-17T12:40:23.295Z,5.83
2018-04-17T12:42:56.854Z,5.23
2018-04-17T12:45:24.680Z,4.77
2018-04-17T12:47:51.504Z,4.83
2018-04-17T12:50:33.274Z,5.10
2018-04-17T12:53:10.996Z,4.93
2018-04-17T12:55:38.812Z,4.70
2018-04-17T12:58:11.354Z,4.80
2018-04-17T13:00:39.222Z,4.10
2018-04-17T13:03:06.054Z,3.67
2018-04-17T13:05:32.907Z,4.53
2018-04-17T13:07:59.758Z,4.17
2018-04-17T13:10:26.564Z,4.37
2018-04-17T13:12:54.335Z,4.30
2018-04-17T13:15:21.255Z,4.10
2018-04-17T13:17:48.957Z,4.93
2018-04-17T13:20:16.713Z,5.10
2018-04-17T13:22:44.510Z,3.93
2018-04-17T13:25:15.052Z,4.00
2018-04-17T13:27:45.666Z,4.23
2018-04-17T13:30:14.540Z,4.23
2018-04-17T13:32:41.443Z,4.03
2018-04-17T13:35:10.102Z,4.27
2018-04-17T13:37:36.905Z,3.90
2018-04-17T13:40:03.771Z,4.33
2018-04-17T13:42:32.478Z,4.20
2018-04-17T13:45:06.643Z,3.93
2018-04-17T13:47:35.363Z,4.10
2018-04-17T13:50:04.061Z,4.60
2018-04-17T13:52:34.277Z,3.90
2018-04-17T13:55:02.994Z,4.23
2018-04-17T13:57:30.717Z,3.90
2018-04-17T13:59:58.502Z,4.30
2018-04-17T14:02:32.429Z,4.10
2018-04-17T14:04:59.268Z,4.57
2018-04-17T14:07:30.075Z,3.90
2018-04-17T14:10:04.585Z,4.20
2018-04-17T14:15:20.120Z,3.93
2018-04-17T14:17:46.962Z,3.90
2018-04-17T14:20:14.705Z,4.23
2018-04-17T14:22:47.678Z,4.50
2018-04-17T14:25:14.588Z,4.60
2018-04-17T14:27:49.984Z,4.00
2018-04-17T14:30:18.672Z,3.90
2018-04-17T14:32:48.576Z,4.37
2018-04-17T14:35:16.366Z,4.27
2018-04-17T14:37:49.036Z,4.63
2018-04-17T14:40:21.527Z,4.43
2018-04-17T14:42:48.255Z,4.40
2018-04-17T14:45:18.777Z,4.33
2018-04-17T14:47:46.567Z,3.97
2018-04-17T14:50:13.402Z,4.30
2018-04-17T14:52:41.166Z,4.67
2018-04-17T14:55:13.613Z,4.80
2018-04-17T14:57:48.333Z,4.57
2018-04-17T15:00:31.662Z,4.30
2018-04-17T15:03:06.622Z,4.50
2018-04-17T15:08:23.379Z,3.97
2018-04-17T15:10:57.551Z,4.50
2018-04-17T15:16:11.622Z,4.30
2018-04-17T15:18:50.346Z,4.03
2018-04-17T15:21:19.039Z,4.73
2018-04-17T15:23:45.900Z,4.30
2018-04-17T15:26:13.688Z,4.27
2018-04-17T15:28:40.489Z,3.97
2018-04-17T15:31:07.346Z,3.90
2018-04-17T15:33:34.211Z,3.80
2018-04-17T15:36:01.026Z,4.40
2018-04-17T15:38:29.713Z,4.07
2018-04-17T15:41:03.312Z,3.93
2018-04-17T15:43:30.161Z,4.20
2018-04-17T15:45:56.993Z,4.10
2018-04-17T15:48:23.892Z,4.43
2018-04-17T15:50:52.533Z,3.70
2018-04-17T15:53:23.367Z,3.83
2018-04-17T15:55:50.257Z,4.10
2018-04-17T15:58:27.463Z,3.40
2018-04-17T16:00:56.215Z,3.90
2018-04-17T16:03:33.767Z,3.90
2018-04-17T16:06:14.949Z,3.63
2018-04-17T16:08:46.277Z,3.67
2018-04-17T16:11:13.082Z,4.47
2018-04-17T16:13:42.989Z,3.70
2018-04-17T16:16:13.209Z,3.47
2018-04-17T16:18:41.015Z,4.17
2018-04-17T16:21:18.837Z,4.10
2018-04-17T16:23:46.633Z,4.30
2018-04-17T16:26:13.490Z,4.03
2018-04-17T16:28:40.354Z,4.10
2018-04-17T16:31:07.215Z,4.23
2018-04-17T16:33:34.043Z,4.00
2018-04-17T16:38:47.096Z,4.10
2018-04-17T16:41:13.883Z,4.30
2018-04-17T16:43:40.797Z,3.97
2018-04-17T16:46:07.614Z,3.73
2018-04-17T16:48:34.411Z,4.27
2018-04-17T16:51:03.119Z,3.87
2018-04-17T16:53:47.960Z,4.23
2018-04-17T16:56:18.328Z,4.50
2018-04-17T16:58:48.844Z,4.00
2018-04-17T17:01:15.702Z,4.40
2018-04-17T17:03:43.460Z,4.77
2018-04-17T17:06:25.251Z,4.40
2018-04-17T17:08:55.606Z,4.13
2018-04-17T17:11:32.239Z,4.03
2018-04-17T17:13:59.136Z,3.90
2018-04-17T17:16:25.943Z,4.20
2018-04-17T17:19:00.478Z,4.20
2018-04-17T17:21:29.158Z,4.17
2018-04-17T17:23:57.835Z,4.43
2018-04-17T17:26:26.531Z,4.37
2018-04-17T17:29:02.889Z,3.90
2018-04-17T17:31:40.461Z,3.80
2018-04-17T17:36:55.992Z,4.47
2018-04-17T17:39:26.556Z,3.90
2018-04-17T17:41:59.199Z,3.80
2018-04-17T17:44:39.437Z,4.30
2018-04-17T17:47:10.699Z,3.77
2018-04-17T17:52:22.529Z,3.70
2018-04-17T17:54:52.502Z,4.10
2018-04-17T17:57:19.276Z,4.47
2018-04-17T17:59:46.122Z,4.20
2018-04-17T18:02:12.966Z,4.93
2018-04-17T18:04:40.749Z,4.17
2018-04-17T18:07:07.642Z,3.80
2018-04-17T18:09:36.280Z,3.83
2018-04-17T18:12:08.707Z,4.10
2018-04-17T18:14:40.409Z,3.90
2018-04-17T18:17:08.173Z,4.00
2018-04-17T18:19:36.879Z,4.30
2018-04-17T18:22:13.219Z,3.53
2018-04-17T18:24:40.978Z,3.97
2018-04-17T18:27:17.652Z,3.87
2018-04-17T18:30:01.586Z,4.50
2018-04-17T18:32:34.679Z,5.20
2018-04-17T18:35:01.544Z,4.80
2018-04-17T18:37:35.785Z,5.37
2018-04-17T18:40:03.540Z,5.20
2018-04-17T18:42:40.187Z,5.50
2018-04-17T18:45:07.955Z,5.27
2018-04-17T18:47:36.752Z,5.30
2018-04-17T18:50:07.204Z,6.07
2018-04-17T18:52:37.738Z,5.43
2018-04-17T18:55:04.625Z,5.20
2018-04-17T18:57:31.438Z,5.50
2018-04-17T18:59:58.232Z,5.40
2018-04-17T19:02:29.687Z,6.00
2018-04-17T19:05:00.576Z,6.00
2018-04-17T19:07:29.273Z,7.17
2018-04-17T19:10:00.987Z,6.77
2018-04-17T19:12:28.725Z,7.17
2018-04-17T19:14:56.495Z,6.53
2018-04-17T19:17:23.372Z,5.60
2018-04-17T19:19:51.142Z,5.50
2018-04-17T19:22:25.002Z,4.93
2018-04-17T19:24:54.930Z,5.70
2018-04-17T19:27:33.123Z,6.77
2018-04-17T19:30:01.130Z,7.70
2018-04-17T19:32:37.894Z,10.77
2018-04-17T19:35:16.453Z,8.10
2018-04-17T19:37:46.702Z,7.17
2018-04-17T19:40:14.425Z,7.13
2018-04-17T19:42:41.236Z,6.80
2018-04-17T19:45:09.057Z,6.63
2018-04-17T19:47:36.782Z,6.23
2018-04-17T19:50:03.618Z,5.90
2018-04-17T19:52:30.490Z,6.20
2018-04-17T19:55:00.374Z,5.90
2018-04-17T19:57:28.153Z,5.83
2018-04-17T20:00:03.568Z,5.87
2018-04-17T20:02:35.972Z,5.53
2018-04-17T20:05:08.064Z,5.80
2018-04-17T20:07:34.887Z,5.70
2018-04-17T20:10:01.719Z,6.70
2018-04-17T20:12:30.424Z,8.07
2018-04-17T20:15:00.628Z,7.70
2018-04-17T20:17:32.078Z,7.20
2018-04-17T20:20:07.221Z,6.50
2018-04-17T20:22:37.442Z,6.23
2018-04-17T20:25:04.282Z,6.57
2018-04-17T20:30:17.990Z,7.00
2018-04-17T20:32:46.667Z,6.10
2018-04-17T20:35:15.317Z,6.27
2018-04-17T20:37:46.174Z,6.30
2018-04-17T20:40:21.601Z,6.30
2018-04-17T20:42:49.403Z,6.30
2018-04-17T20:45:16.290Z,6.53
2018-04-17T20:47:55.374Z,6.63
2018-04-17T20:50:38.359Z,6.37
2018-04-17T20:53:06.264Z,6.50
2018-04-17T20:55:41.390Z,7.33
2018-04-17T20:58:09.190Z,9.17
2018-04-17T21:00:35.973Z,8.23
2018-04-17T21:03:02.858Z,8.80
2018-04-17T21:05:29.663Z,7.87
2018-04-17T21:07:59.584Z,8.23
2018-04-17T21:10:30.438Z,8.23
2018-04-17T21:12:58.174Z,8.00
2018-04-17T21:15:25.019Z,7.77
2018-04-17T21:17:55.562Z,7.93
2018-04-17T21:20:30.375Z,6.77
2018-04-17T21:23:13.709Z,6.40
2018-04-17T21:25:53.132Z,6.73
2018-04-17T21:31:05.404Z,6.93
2018-04-17T21:33:43.872Z,7.20
2018-04-17T21:36:11.675Z,6.47
2018-04-17T21:38:39.430Z,6.77
2018-04-17T21:41:16.720Z,6.43
2018-04-17T21:43:44.468Z,6.20
2018-04-17T21:46:12.234Z,6.93
2018-04-17T21:48:40.012Z,6.30
2018-04-17T21:51:18.591Z,6.50
2018-04-17T21:53:59.702Z,6.50
2018-04-17T21:59:13.185Z,7.90
2018-04-17T22:01:43.420Z,7.00
2018-04-17T22:04:10.221Z,7.13
2018-04-17T22:06:38.945Z,6.70
2018-04-17T22:09:06.688Z,6.67
2018-04-17T22:11:35.374Z,7.17
2018-04-17T22:14:03.192Z,7.70
2018-04-17T22:16:29.990Z,7.43
2018-04-17T22:18:57.760Z,7.53
2018-04-17T22:21:28.293Z,7.77
2018-04-17T22:23:58.153Z,7.30
2018-04-17T22:26:24.795Z,7.77
2018-04-17T22:28:59.856Z,7.83
2018-04-17T22:31:28.550Z,8.60
2018-04-17T22:33:58.506Z,9.93
2018-04-17T22:36:27.180Z,9.13
2018-04-17T22:38:54.007Z,9.90
2018-04-17T22:41:20.883Z,9.87
2018-04-17T22:43:47.687Z,9.00
2018-04-17T22:46:17.917Z,9.43
2018-04-17T22:48:48.479Z,8.67
2018-04-17T22:51:15.289Z,8.90
2018-04-17T22:53:43.977Z,8.60
2018-04-17T22:56:14.221Z,8.83
2018-04-17T22:58:42.935Z,8.97
2018-04-17T23:01:09.719Z,8.63
2018-04-17T23:03:37.488Z,8.20
2018-04-17T23:06:16.327Z,8.73
2018-04-17T23:08:57.472Z,8.57
2018-04-17T23:11:36.136Z,8.50
2018-04-17T23:14:13.695Z,8.70
2018-04-17T23:22:11.136Z,8.37
2018-04-17T23:24:37.987Z,8.30
2018-04-17T23:27:04.787Z,8.20
2018-04-17T23:29:31.658Z,8.60
2018-04-17T23:31:59.428Z,8.40
2018-04-17T23:34:33.289Z,8.57
2018-04-17T23:37:00.161Z,8.20
2018-04-17T23:39:38.661Z,8.17
2018-04-17T23:42:08.919Z,9.20
2018-04-17T23:44:41.591Z,8.50
2018-04-17T23:47:09.379Z,8.60
2018-04-17T23:49:37.118Z,8.27
2018-04-17T23:52:04.922Z,8.80
2018-04-17T23:54:34.797Z,8.60
2018-04-17T23:57:02.584Z,8.37
2018-04-17T23:59:30.344Z,7.77
